createdAt,value
2022-10-05T00:01:46.213Z,20.83
2022-10-05T00:04:17.142Z,20.88
2022-10-05T00:06:46.427Z,20.88
2022-10-05T00:09:17.917Z,20.88
2022-10-05T00:11:45.716Z,20.90
2022-10-05T00:14:19.917Z,21.01
2022-10-05T00:16:47.630Z,21.11
2022-10-05T00:19:22.158Z,21.03
2022-10-05T00:21:49.260Z,21.03
2022-10-05T00:24:20.465Z,21.09
2022-10-05T00:26:47.948Z,21.11
2022-10-05T00:29:22.139Z,21.05
2022-10-05T00:31:50.676Z,21.03
2022-10-05T00:34:18.458Z,21.11
2022-10-05T00:36:46.339Z,21.13
2022-10-05T00:39:13.998Z,21.09
2022-10-05T00:42:00.094Z,21.06
2022-10-05T00:44:43.581Z,21.04
2022-10-05T00:47:35.563Z,21.00
2022-10-05T00:50:23.139Z,20.92
2022-10-05T00:53:01.099Z,20.88
2022-10-05T00:55:41.079Z,20.90
2022-10-05T00:58:22.379Z,20.86
2022-10-05T01:01:00.068Z,20.81
2022-10-05T01:03:39.499Z,20.70
2022-10-05T01:06:18.519Z,20.70
2022-10-05T01:08:58.260Z,20.67
2022-10-05T01:11:36.585Z,20.74
2022-10-05T01:14:17.340Z,20.73
2022-10-05T01:16:53.218Z,20.75
2022-10-05T01:19:41.978Z,20.78
2022-10-05T01:22:19.641Z,20.73
2022-10-05T01:25:07.941Z,20.70
2022-10-05T01:27:51.038Z,20.67
2022-10-05T01:30:21.423Z,20.67
2022-10-05T01:32:59.338Z,20.74
2022-10-05T01:35:43.219Z,20.69
2022-10-05T01:38:24.841Z,20.66
2022-10-05T01:41:04.800Z,20.71
2022-10-05T01:43:44.638Z,20.67
2022-10-05T01:46:25.279Z,20.55
2022-10-05T01:49:14.673Z,20.57
2022-10-05T01:51:55.768Z,20.61
2022-10-05T01:54:37.678Z,20.66
2022-10-05T01:57:15.539Z,20.66
2022-10-05T02:00:01.541Z,20.80
2022-10-05T02:02:34.836Z,21.52
2022-10-05T02:05:08.328Z,21.72
2022-10-05T02:07:44.618Z,21.77
2022-10-05T02:10:24.159Z,21.86
2022-10-05T02:12:58.818Z,21.97
2022-10-05T02:15:37.453Z,22.18
2022-10-05T02:18:12.578Z,22.18
2022-10-05T02:20:43.560Z,22.28
2022-10-05T02:23:17.957Z,22.47
2022-10-05T02:25:49.840Z,22.51
2022-10-05T02:28:25.369Z,22.50
2022-10-05T02:31:00.782Z,22.58
2022-10-05T02:33:30.217Z,22.48
2022-10-05T02:36:01.079Z,22.43
2022-10-05T02:38:40.159Z,22.47
2022-10-05T02:41:17.577Z,22.49
2022-10-05T02:43:53.741Z,22.45
2022-10-05T02:46:34.455Z,22.36
2022-10-05T02:49:15.522Z,22.38
2022-10-05T02:51:55.559Z,22.23
2022-10-05T02:54:40.298Z,22.19
2022-10-05T02:57:16.897Z,22.28
2022-10-05T02:59:54.045Z,22.22
2022-10-05T03:02:29.524Z,22.27
2022-10-05T03:05:09.761Z,22.23
2022-10-05T03:07:47.897Z,22.19
2022-10-05T03:10:26.939Z,22.23
2022-10-05T03:13:02.338Z,22.22
2022-10-05T03:16:09.726Z,22.06
2022-10-05T03:18:53.839Z,22.18
2022-10-05T03:21:38.862Z,22.11
2022-10-05T03:24:25.120Z,21.96
2022-10-05T03:27:02.801Z,21.90
2022-10-05T03:29:40.719Z,21.87
2022-10-05T03:32:24.004Z,21.72
2022-10-05T03:35:01.899Z,21.65
2022-10-05T03:37:39.811Z,21.74
2022-10-05T03:40:20.539Z,21.71
2022-10-05T03:43:06.161Z,21.78
2022-10-05T03:45:44.620Z,21.63
2022-10-05T03:48:18.720Z,21.69
2022-10-05T03:51:01.439Z,21.69
2022-10-05T03:53:37.838Z,21.68
2022-10-05T03:56:12.239Z,21.57
2022-10-05T03:58:45.358Z,21.54
2022-10-05T04:01:19.412Z,21.55
2022-10-05T04:03:52.059Z,21.49
2022-10-05T04:06:26.698Z,21.53
2022-10-05T04:09:00.579Z,21.52
2022-10-05T04:11:33.620Z,21.50
2022-10-05T04:14:07.341Z,21.43
2022-10-05T04:16:41.359Z,21.44
2022-10-05T04:19:18.380Z,21.43
2022-10-05T04:21:52.005Z,21.42
2022-10-05T04:24:28.858Z,21.44
2022-10-05T04:27:03.818Z,21.43
2022-10-05T04:29:38.298Z,21.47
2022-10-05T04:32:28.640Z,21.46
2022-10-05T04:35:44.980Z,21.41
2022-10-05T04:38:37.700Z,21.37
2022-10-05T04:41:25.641Z,21.38
2022-10-05T04:44:13.164Z,21.36
2022-10-05T04:47:00.191Z,21.42
2022-10-05T04:49:54.158Z,21.34
2022-10-05T04:52:30.822Z,21.42
2022-10-05T04:55:12.539Z,21.46
2022-10-05T04:57:49.738Z,21.42
2022-10-05T05:00:31.784Z,21.49
2022-10-05T05:03:32.183Z,21.41
2022-10-05T05:06:18.725Z,21.41
2022-10-05T05:09:05.422Z,21.38
2022-10-05T05:11:52.459Z,21.36
2022-10-05T05:14:49.140Z,21.14
2022-10-05T05:17:36.286Z,21.20
2022-10-05T05:20:19.280Z,21.30
2022-10-05T05:22:54.370Z,21.26
2022-10-05T05:25:38.798Z,21.39
2022-10-05T05:28:23.399Z,21.29
2022-10-05T05:31:00.946Z,21.41
2022-10-05T05:33:42.481Z,21.38
2022-10-05T05:36:45.132Z,21.34
2022-10-05T05:39:24.160Z,21.42
2022-10-05T05:42:00.391Z,21.51
2022-10-05T05:44:38.722Z,21.48
2022-10-05T05:47:19.728Z,21.44
2022-10-05T05:50:07.402Z,21.48
2022-10-05T05:52:43.101Z,21.44
2022-10-05T05:55:21.262Z,21.53
2022-10-05T05:57:56.498Z,21.52
2022-10-05T06:00:34.685Z,21.42
2022-10-05T06:03:11.689Z,21.39
2022-10-05T06:05:44.861Z,21.40
2022-10-05T06:08:22.622Z,21.40
2022-10-05T06:10:55.900Z,21.34
2022-10-05T06:13:29.199Z,21.58
2022-10-05T06:16:05.385Z,21.54
2022-10-05T06:18:34.459Z,21.89
2022-10-05T06:21:11.339Z,22.14
2022-10-05T06:23:47.689Z,22.72
2022-10-05T06:26:36.881Z,23.08
2022-10-05T06:29:11.502Z,23.20
2022-10-05T06:32:05.054Z,23.46
2022-10-05T06:34:53.579Z,23.41
2022-10-05T06:37:33.198Z,23.56
2022-10-05T06:40:16.421Z,23.62
2022-10-05T06:43:09.179Z,23.69
2022-10-05T06:45:51.721Z,23.85
2022-10-05T06:48:35.379Z,24.01
2022-10-05T06:51:15.579Z,24.20
2022-10-05T06:53:54.502Z,24.27
2022-10-05T06:56:31.798Z,24.33
2022-10-05T06:59:09.800Z,24.37
2022-10-05T07:01:52.256Z,24.56
2022-10-05T07:04:42.838Z,24.68
2022-10-05T07:07:21.519Z,24.74
2022-10-05T07:10:03.445Z,24.93
2022-10-05T07:12:58.959Z,25.16
2022-10-05T07:15:41.238Z,25.29
2022-10-05T07:18:31.779Z,25.43
2022-10-05T07:21:14.758Z,25.54
2022-10-05T07:24:01.400Z,25.68
2022-10-05T07:26:37.439Z,25.62
2022-10-05T07:29:29.681Z,25.76
2022-10-05T07:32:08.842Z,25.79
2022-10-05T07:34:50.439Z,25.87
2022-10-05T07:37:29.699Z,25.97
2022-10-05T07:40:10.719Z,25.96
2022-10-05T07:42:55.178Z,26.19
2022-10-05T07:45:29.638Z,26.00
2022-10-05T07:48:01.980Z,26.15
2022-10-05T07:50:37.536Z,26.19
2022-10-05T07:53:15.561Z,26.30
2022-10-05T07:55:51.962Z,26.24
2022-10-05T07:58:26.486Z,26.43
2022-10-05T08:01:10.162Z,26.38
2022-10-05T08:03:48.866Z,26.58
2022-10-05T08:06:43.002Z,26.61
2022-10-05T08:09:28.320Z,26.81
2022-10-05T08:12:07.579Z,26.91
2022-10-05T08:14:46.557Z,26.93
2022-10-05T08:17:26.539Z,26.96
2022-10-05T08:20:06.579Z,27.01
2022-10-05T08:22:46.138Z,26.97
2022-10-05T08:25:24.721Z,26.88
2022-10-05T08:28:00.189Z,27.11
2022-10-05T08:30:34.219Z,27.06
2022-10-05T08:33:10.620Z,27.24
2022-10-05T08:35:42.178Z,27.39
2022-10-05T08:38:14.786Z,27.73
2022-10-05T08:41:11.938Z,27.59
2022-10-05T08:44:07.060Z,27.52
2022-10-05T08:47:07.102Z,27.75
2022-10-05T08:50:06.781Z,27.92
2022-10-05T08:52:56.701Z,27.74
2022-10-05T08:55:46.282Z,27.89
2022-10-05T08:58:51.380Z,28.04
2022-10-05T09:01:31.845Z,27.92
2022-10-05T09:04:23.341Z,28.10
2022-10-05T09:07:15.520Z,28.20
2022-10-05T09:10:25.121Z,27.99
2022-10-05T09:13:23.981Z,27.88
2022-10-05T09:16:19.553Z,28.02
2022-10-05T09:19:26.681Z,28.16
2022-10-05T09:22:06.100Z,27.98
2022-10-05T09:24:56.303Z,27.82
2022-10-05T09:27:37.000Z,28.06
2022-10-05T09:30:37.683Z,28.10
2022-10-05T09:33:37.441Z,28.02
2022-10-05T09:36:47.275Z,28.26
2022-10-05T09:39:43.821Z,28.24
2022-10-05T09:42:49.941Z,28.07
2022-10-05T09:45:37.641Z,28.30
2022-10-05T09:48:40.262Z,28.16
2022-10-05T09:51:44.720Z,28.40
2022-10-05T09:54:59.864Z,28.52
2022-10-05T09:57:53.348Z,28.48
2022-10-05T10:00:36.202Z,28.61
2022-10-05T10:03:47.123Z,28.78
2022-10-05T10:06:34.942Z,28.90
2022-10-05T10:09:28.422Z,28.41
2022-10-05T10:12:25.447Z,28.74
2022-10-05T10:15:40.014Z,28.88
2022-10-05T10:18:45.281Z,28.74
2022-10-05T10:21:51.921Z,28.67
2022-10-05T10:24:43.056Z,28.85
2022-10-05T10:27:46.274Z,28.73
2022-10-05T10:30:53.426Z,28.74
2022-10-05T10:33:54.761Z,28.99
2022-10-05T10:36:46.352Z,29.20
2022-10-05T10:39:30.566Z,29.19
2022-10-05T10:42:26.253Z,29.22
2022-10-05T10:45:12.829Z,29.15
2022-10-05T10:47:55.421Z,28.98
2022-10-05T10:50:53.010Z,29.13
2022-10-05T10:54:02.687Z,28.94
2022-10-05T10:56:48.288Z,28.94
2022-10-05T10:59:51.341Z,29.12
2022-10-05T11:02:48.976Z,29.14
2022-10-05T11:05:36.231Z,28.42
2022-10-05T11:08:31.690Z,28.51
2022-10-05T11:11:33.689Z,28.79
2022-10-05T11:14:34.249Z,29.06
2022-10-05T11:17:25.789Z,28.84
2022-10-05T11:20:25.668Z,29.05
2022-10-05T11:23:03.349Z,28.95
2022-10-05T11:26:04.490Z,28.71
2022-10-05T11:29:11.430Z,28.73
2022-10-05T11:32:14.809Z,28.99
2022-10-05T11:35:12.989Z,28.92
2022-10-05T11:38:03.769Z,29.10
2022-10-05T11:41:10.732Z,29.18
2022-10-05T11:44:12.749Z,29.20
2022-10-05T11:46:51.654Z,29.19
2022-10-05T11:49:40.511Z,29.28
2022-10-05T11:52:18.470Z,29.25
2022-10-05T11:55:17.391Z,29.15
2022-10-05T11:57:52.869Z,28.22
2022-10-05T12:00:22.790Z,28.78
2022-10-05T12:03:12.163Z,29.10
2022-10-05T12:05:56.913Z,28.92
2022-10-05T12:08:37.809Z,28.78
2022-10-05T12:11:26.371Z,28.81
2022-10-05T12:14:01.989Z,28.64
2022-10-05T12:16:40.048Z,28.36
2022-10-05T12:19:17.510Z,28.68
2022-10-05T12:21:56.089Z,28.81
2022-10-05T12:24:46.309Z,28.95
2022-10-05T12:27:18.869Z,29.04
2022-10-05T12:29:56.531Z,28.95
2022-10-05T12:32:31.510Z,28.91
2022-10-05T12:35:08.310Z,28.98
2022-10-05T12:37:47.932Z,29.00
2022-10-05T12:40:27.653Z,28.79
2022-10-05T12:43:14.150Z,28.90
2022-10-05T12:45:59.846Z,28.99
2022-10-05T12:48:53.889Z,28.56
2022-10-05T12:51:32.569Z,28.61
2022-10-05T12:54:12.118Z,28.74
2022-10-05T12:56:52.350Z,28.82
2022-10-05T12:59:35.968Z,28.85
2022-10-05T13:02:19.152Z,28.58
2022-10-05T13:04:57.270Z,28.66
2022-10-05T13:07:56.570Z,28.68
2022-10-05T13:10:37.730Z,28.63
2022-10-05T13:13:27.629Z,28.09
2022-10-05T13:16:09.187Z,28.34
2022-10-05T13:18:51.871Z,28.52
2022-10-05T13:21:27.219Z,28.07
2022-10-05T13:24:05.270Z,28.40
2022-10-05T13:26:37.615Z,28.49
2022-10-05T13:29:19.758Z,28.56
2022-10-05T13:31:51.560Z,28.55
2022-10-05T13:34:30.171Z,28.61
2022-10-05T13:37:07.795Z,28.52
2022-10-05T13:39:59.180Z,28.24
2022-10-05T13:42:37.853Z,28.44
2022-10-05T13:45:17.275Z,28.58
2022-10-05T13:48:02.076Z,28.22
2022-10-05T13:50:33.699Z,28.50
2022-10-05T13:53:13.930Z,28.46
2022-10-05T13:55:47.734Z,28.47
2022-10-05T13:58:25.051Z,28.56
2022-10-05T14:00:57.976Z,28.47
2022-10-05T14:03:29.698Z,28.50
2022-10-05T14:05:58.873Z,28.28
2022-10-05T14:08:29.954Z,28.45
2022-10-05T14:10:57.178Z,28.47
2022-10-05T14:13:27.505Z,28.48
2022-10-05T14:16:02.808Z,28.44
2022-10-05T14:18:32.271Z,28.40
2022-10-05T14:21:16.829Z,28.47
2022-10-05T14:23:44.561Z,28.48
2022-10-05T14:26:20.527Z,28.52
2022-10-05T14:29:00.573Z,28.40
2022-10-05T14:31:33.287Z,28.44
2022-10-05T14:34:32.717Z,28.30
2022-10-05T14:37:04.513Z,28.37
2022-10-05T14:39:35.156Z,28.38
2022-10-05T14:42:18.596Z,28.32
2022-10-05T14:44:46.576Z,28.41
2022-10-05T14:47:22.868Z,28.39
2022-10-05T14:49:53.535Z,28.45
2022-10-05T14:52:31.315Z,28.46
2022-10-05T14:55:07.277Z,28.46
2022-10-05T14:57:47.217Z,28.47
2022-10-05T15:00:16.952Z,28.42
2022-10-05T15:03:09.649Z,28.30
2022-10-05T15:05:45.092Z,28.36
2022-10-05T15:08:33.430Z,28.36
2022-10-05T15:11:06.471Z,28.36
2022-10-05T15:13:39.032Z,28.23
2022-10-05T15:16:18.651Z,28.34
2022-10-05T15:18:57.331Z,28.33
2022-10-05T15:21:39.236Z,28.18
2022-10-05T15:24:12.429Z,28.29
2022-10-05T15:26:49.531Z,28.35
2022-10-05T15:29:42.950Z,28.37
2022-10-05T15:32:33.930Z,28.30
2022-10-05T15:35:37.670Z,28.28
2022-10-05T15:38:19.869Z,28.18
2022-10-05T15:40:55.750Z,28.09
2022-10-05T15:43:23.931Z,28.22
2022-10-05T15:46:03.871Z,28.14
2022-10-05T15:48:45.755Z,27.96
2022-10-05T15:51:30.268Z,27.87
2022-10-05T15:54:06.904Z,27.56
2022-10-05T15:56:41.072Z,27.61
2022-10-05T15:59:24.192Z,27.42
2022-10-05T16:01:58.527Z,27.50
2022-10-05T16:04:39.794Z,27.52
2022-10-05T16:07:18.995Z,27.55
2022-10-05T16:10:00.591Z,27.55
2022-10-05T16:12:42.951Z,27.48
2022-10-05T16:15:21.794Z,27.46
2022-10-05T16:18:07.174Z,27.39
2022-10-05T16:20:48.533Z,27.35
2022-10-05T16:23:27.375Z,27.26
2022-10-05T16:26:10.671Z,27.28
2022-10-05T16:28:53.739Z,27.25
2022-10-05T16:31:31.105Z,27.20
2022-10-05T16:34:14.892Z,27.17
2022-10-05T16:36:55.532Z,27.16
2022-10-05T16:39:49.690Z,27.11
2022-10-05T16:42:35.051Z,27.06
2022-10-05T16:45:20.853Z,27.00
2022-10-05T16:47:59.396Z,26.98
2022-10-05T16:50:35.456Z,26.96
2022-10-05T16:53:12.182Z,26.97
2022-10-05T16:55:47.612Z,26.92
2022-10-05T16:58:23.895Z,26.90
2022-10-05T17:01:08.592Z,26.87
2022-10-05T17:03:58.233Z,26.79
2022-10-05T17:07:03.555Z,26.81
2022-10-05T17:10:09.078Z,26.82
2022-10-05T17:12:53.192Z,26.80
2022-10-05T17:15:36.526Z,26.75
2022-10-05T17:18:25.155Z,26.67
2022-10-05T17:21:01.892Z,26.62
2022-10-05T17:23:37.415Z,26.81
2022-10-05T17:26:39.952Z,27.04
2022-10-05T17:29:25.334Z,26.86
2022-10-05T17:32:09.631Z,26.86
2022-10-05T17:34:38.810Z,27.02
2022-10-05T17:37:19.053Z,27.00
2022-10-05T17:39:50.346Z,26.79
2022-10-05T17:42:46.457Z,26.64
2022-10-05T17:45:56.278Z,26.47
2022-10-05T17:48:59.573Z,26.32
2022-10-05T17:52:02.530Z,26.19
2022-10-05T17:54:32.265Z,26.13
2022-10-05T17:57:23.939Z,26.04
2022-10-05T18:00:00.353Z,25.95
2022-10-05T18:02:43.120Z,25.83
2022-10-05T18:05:22.949Z,25.76
2022-10-05T18:08:31.833Z,25.70
2022-10-05T18:11:33.364Z,25.60
2022-10-05T18:14:19.209Z,25.54
2022-10-05T18:17:01.067Z,25.45
2022-10-05T18:19:31.810Z,25.36
2022-10-05T18:22:27.091Z,25.28
2022-10-05T18:25:02.437Z,25.20
2022-10-05T18:28:00.977Z,25.19
2022-10-05T18:30:40.953Z,25.19
2022-10-05T18:33:37.369Z,25.26
2022-10-05T18:36:22.394Z,25.24
2022-10-05T18:39:03.308Z,25.21
2022-10-05T18:41:51.526Z,25.18
2022-10-05T18:44:35.740Z,25.15
2022-10-05T18:47:12.942Z,25.06
2022-10-05T18:50:07.264Z,24.94
2022-10-05T18:52:55.182Z,24.89
2022-10-05T18:55:33.001Z,24.82
2022-10-05T18:58:17.122Z,24.75
2022-10-05T19:01:14.499Z,24.65
2022-10-05T19:03:59.477Z,24.65
2022-10-05T19:06:31.616Z,24.69
2022-10-05T19:09:18.330Z,24.66
2022-10-05T19:11:59.689Z,24.72
2022-10-05T19:14:37.750Z,24.72
2022-10-05T19:17:23.269Z,24.70
2022-10-05T19:20:17.146Z,24.69
2022-10-05T19:23:07.971Z,24.72
2022-10-05T19:25:46.469Z,24.63
2022-10-05T19:28:29.018Z,24.70
2022-10-05T19:31:24.986Z,24.61
2022-10-05T19:34:11.945Z,24.54
2022-10-05T19:36:53.464Z,24.58
2022-10-05T19:39:33.326Z,24.57
2022-10-05T19:42:24.227Z,24.57
2022-10-05T19:45:10.047Z,24.62
2022-10-05T19:47:52.288Z,24.63
2022-10-05T19:50:27.525Z,24.64
2022-10-05T19:53:02.184Z,24.61
2022-10-05T19:55:36.025Z,24.58
2022-10-05T19:58:19.424Z,24.64
2022-10-05T20:00:58.865Z,24.61
2022-10-05T20:03:28.284Z,24.68
2022-10-05T20:05:57.758Z,24.61
2022-10-05T20:08:27.381Z,24.61
2022-10-05T20:11:06.888Z,24.64
2022-10-05T20:13:36.584Z,24.63
2022-10-05T20:16:09.900Z,24.58
2022-10-05T20:18:39.605Z,24.54
2022-10-05T20:21:06.964Z,24.55
2022-10-05T20:23:34.043Z,24.56
2022-10-05T20:26:01.204Z,24.52
2022-10-05T20:28:32.211Z,24.36
2022-10-05T20:31:01.350Z,24.43
2022-10-05T20:33:29.786Z,24.37
2022-10-05T20:35:57.007Z,24.34
2022-10-05T20:38:24.380Z,24.35
2022-10-05T20:40:51.667Z,24.31
2022-10-05T20:43:18.873Z,24.30
2022-10-05T20:45:46.017Z,24.24
2022-10-05T20:48:15.318Z,24.21
2022-10-05T20:50:42.436Z,24.21
2022-10-05T20:53:11.865Z,24.14
2022-10-05T20:55:39.359Z,24.15
2022-10-05T20:58:06.577Z,24.15
2022-10-05T21:00:34.122Z,24.16
2022-10-05T21:03:01.423Z,24.17
2022-10-05T21:05:30.999Z,24.13
2022-10-05T21:07:58.173Z,24.14
2022-10-05T21:10:25.460Z,24.11
2022-10-05T21:12:52.563Z,24.08
2022-10-05T21:15:19.733Z,24.07
2022-10-05T21:17:46.971Z,24.07
2022-10-05T21:20:14.192Z,23.97
2022-10-05T21:22:42.754Z,23.91
2022-10-05T21:25:10.052Z,23.88
2022-10-05T21:27:37.212Z,23.81
2022-10-05T21:30:04.934Z,23.72
2022-10-05T21:32:32.062Z,23.72
2022-10-05T21:34:59.794Z,23.68
2022-10-05T21:37:26.971Z,23.63
2022-10-05T21:39:55.391Z,23.61
2022-10-05T21:42:23.565Z,23.58
2022-10-05T21:44:50.912Z,23.54
2022-10-05T21:47:17.972Z,23.48
2022-10-05T21:49:45.113Z,23.43
2022-10-05T21:52:13.245Z,23.36
2022-10-05T21:54:40.468Z,23.33
2022-10-05T21:57:12.985Z,23.31
2022-10-05T21:59:40.885Z,23.32
2022-10-05T22:02:07.932Z,23.33
2022-10-05T22:04:35.026Z,23.32
2022-10-05T22:07:06.270Z,23.28
2022-10-05T22:09:33.469Z,23.21
2022-10-05T22:12:00.685Z,23.18
2022-10-05T22:14:29.226Z,23.20
2022-10-05T22:16:56.348Z,23.24
2022-10-05T22:19:23.727Z,23.27
2022-10-05T22:21:50.806Z,23.25
2022-10-05T22:24:18.265Z,23.29
2022-10-05T22:26:49.287Z,23.30
2022-10-05T22:29:17.406Z,23.33
2022-10-05T22:31:47.396Z,23.34
2022-10-05T22:34:14.605Z,23.38
2022-10-05T22:36:41.704Z,23.35
2022-10-05T22:39:09.078Z,23.36
2022-10-05T22:41:36.189Z,23.38
2022-10-05T22:44:03.327Z,23.37
2022-10-05T22:46:30.724Z,23.38
2022-10-05T22:48:59.284Z,23.36
2022-10-05T22:51:26.445Z,23.33
2022-10-05T22:53:53.646Z,23.34
2022-10-05T22:56:20.787Z,23.37
2022-10-05T22:58:47.924Z,23.33
2022-10-05T23:01:17.930Z,23.35
2022-10-05T23:03:45.846Z,23.30
2022-10-05T23:06:16.366Z,23.29
2022-10-05T23:08:44.804Z,23.23
2022-10-05T23:11:14.478Z,23.20
2022-10-05T23:13:42.168Z,23.13
2022-10-05T23:16:11.916Z,23.10
2022-10-05T23:18:40.027Z,23.06
2022-10-05T23:21:09.667Z,23.04
2022-10-05T23:23:40.373Z,23.03
2022-10-05T23:26:10.164Z,23.01
2022-10-05T23:28:39.685Z,22.95
2022-10-05T23:31:08.816Z,22.98
2022-10-05T23:33:36.066Z,22.95
2022-10-05T23:36:06.365Z,22.93
2022-10-05T23:38:34.746Z,22.90
2022-10-05T23:41:04.525Z,22.93
2022-10-05T23:43:32.644Z,22.93
2022-10-05T23:46:00.737Z,22.93
2022-10-05T23:48:28.515Z,22.94
2022-10-05T23:50:56.189Z,22.96
2022-10-05T23:53:23.970Z,22.94
2022-10-05T23:55:51.606Z,22.87
2022-10-05T23:58:20.845Z,22.95
